createdAt,value
2018-07-05T00:02:28.626Z,7.75
2018-07-05T00:05:08.184Z,7.00
2018-07-05T00:07:47.618Z,7.40
2018-07-05T00:10:27.092Z,7.87
2018-07-05T00:13:06.568Z,8.03
2018-07-05T00:15:45.860Z,6.92
2018-07-05T00:18:25.140Z,7.50
2018-07-05T00:21:04.515Z,7.60
2018-07-05T00:23:44.052Z,7.10
2018-07-05T00:26:23.343Z,8.18
2018-07-05T00:29:02.671Z,8.13
2018-07-05T00:31:42.132Z,7.87
2018-07-05T00:34:21.652Z,6.80
2018-07-05T00:37:01.189Z,6.30
2018-07-05T00:39:40.776Z,7.30
2018-07-05T00:42:20.241Z,8.75
2018-07-05T00:45:00.521Z,7.67
2018-07-05T00:47:40.048Z,8.50
2018-07-05T00:50:19.652Z,7.83
2018-07-05T00:52:59.040Z,7.70
2018-07-05T00:55:38.596Z,8.77
2018-07-05T00:58:17.866Z,8.60
2018-07-05T01:00:57.284Z,9.50
2018-07-05T01:03:36.817Z,11.37
2018-07-05T01:06:16.310Z,12.10
2018-07-05T01:08:55.825Z,12.73
2018-07-05T01:11:35.260Z,11.10
2018-07-05T01:14:14.649Z,13.50
2018-07-05T01:16:54.105Z,12.97
2018-07-05T01:19:33.651Z,13.33
2018-07-05T01:22:13.068Z,10.30
2018-07-05T01:24:52.545Z,11.00
2018-07-05T01:27:36.382Z,10.18
2018-07-05T01:30:16.334Z,8.57
2018-07-05T01:32:55.832Z,8.10
2018-07-05T01:35:35.594Z,7.97
2018-07-05T01:38:15.240Z,8.47
2018-07-05T01:40:54.728Z,8.58
2018-07-05T01:43:33.956Z,7.80
2018-07-05T01:46:13.476Z,8.17
2018-07-05T01:48:52.895Z,6.80
2018-07-05T01:51:33.529Z,6.90
2018-07-05T01:54:13.103Z,8.23
2018-07-05T01:56:52.541Z,7.73
2018-07-05T01:59:31.962Z,9.47
2018-07-05T02:02:11.269Z,7.90
2018-07-05T02:04:50.729Z,8.18
2018-07-05T02:07:30.188Z,8.40
2018-07-05T02:10:09.620Z,8.70
2018-07-05T02:12:49.170Z,8.25
2018-07-05T02:15:28.645Z,7.60
2018-07-05T02:18:08.055Z,8.63
2018-07-05T02:20:47.384Z,7.92
2018-07-05T02:23:26.591Z,9.13
2018-07-05T02:26:06.012Z,8.40
2018-07-05T02:28:45.504Z,7.53
2018-07-05T02:31:24.907Z,7.85
2018-07-05T02:34:11.067Z,7.85
2018-07-05T02:36:50.536Z,7.90
2018-07-05T02:39:35.492Z,9.43
2018-07-05T02:42:15.204Z,9.80
2018-07-05T02:44:55.079Z,9.77
2018-07-05T02:47:34.714Z,12.17
2018-07-05T02:50:14.552Z,11.73
2018-07-05T02:52:54.039Z,12.00
2018-07-05T02:55:33.441Z,11.13
2018-07-05T02:58:12.948Z,11.77
2018-07-05T03:00:52.472Z,12.30
2018-07-05T03:03:32.053Z,12.07
2018-07-05T03:06:11.376Z,11.63
2018-07-05T03:08:50.788Z,11.70
2018-07-05T03:11:30.172Z,11.10
2018-07-05T03:14:09.568Z,11.20
2018-07-05T03:16:48.932Z,9.90
2018-07-05T03:19:28.370Z,9.93
2018-07-05T03:22:07.864Z,10.33
2018-07-05T03:24:47.335Z,10.53
2018-07-05T03:27:26.817Z,10.13
2018-07-05T03:30:06.245Z,9.80
2018-07-05T03:32:45.766Z,10.45
2018-07-05T03:35:25.404Z,10.33
2018-07-05T03:38:04.763Z,10.43
2018-07-05T03:40:44.143Z,10.40
2018-07-05T03:43:23.508Z,9.57
2018-07-05T03:46:02.997Z,9.00
2018-07-05T03:48:42.534Z,10.25
2018-07-05T03:51:21.830Z,8.33
2018-07-05T03:54:01.491Z,9.27
2018-07-05T03:56:40.912Z,10.30
2018-07-05T03:59:20.295Z,8.68
2018-07-05T04:01:59.817Z,9.90
2018-07-05T04:04:39.661Z,9.18
2018-07-05T04:07:19.312Z,8.27
2018-07-05T04:09:58.911Z,9.57
2018-07-05T04:12:38.255Z,8.20
2018-07-05T04:15:17.697Z,5.85
2018-07-05T22:02:48.783Z,12.17
2018-07-05T22:05:28.272Z,10.20
2018-07-05T22:08:07.855Z,8.43
2018-07-05T22:10:47.301Z,6.40
2018-07-05T22:13:26.641Z,6.07
2018-07-05T22:16:06.202Z,5.65
2018-07-05T22:18:51.185Z,4.40
2018-07-05T22:21:30.757Z,6.87
2018-07-05T22:24:15.689Z,4.77
2018-07-05T22:26:55.298Z,5.13
2018-07-05T22:29:39.964Z,6.17
2018-07-05T22:32:19.846Z,5.57
2018-07-05T22:34:59.245Z,5.93
2018-07-05T22:37:38.827Z,6.23
2018-07-05T22:40:18.312Z,5.60
2018-07-05T22:42:57.928Z,6.40
2018-07-05T22:45:37.548Z,6.37
2018-07-05T22:48:16.882Z,6.87
2018-07-05T22:50:56.329Z,6.78
2018-07-05T22:53:35.914Z,7.47
2018-07-05T22:56:15.443Z,6.10
2018-07-05T22:58:54.892Z,6.00
2018-07-05T23:01:34.297Z,6.92
2018-07-05T23:04:13.998Z,6.03
2018-07-05T23:06:53.743Z,5.83
2018-07-05T23:09:33.132Z,5.90
2018-07-05T23:12:12.591Z,5.20
2018-07-05T23:14:52.013Z,5.33
2018-07-05T23:17:32.446Z,5.80
2018-07-05T23:20:12.004Z,5.87
2018-07-05T23:22:51.638Z,6.40
2018-07-05T23:25:31.151Z,4.83
2018-07-05T23:28:10.643Z,5.50
2018-07-05T23:30:50.248Z,5.70
2018-07-05T23:33:29.804Z,6.87
2018-07-05T23:36:09.912Z,5.23
2018-07-05T23:38:49.400Z,4.43
2018-07-05T23:41:28.936Z,5.17
2018-07-05T23:44:08.308Z,5.20
2018-07-05T23:46:47.601Z,5.80
2018-07-05T23:49:26.989Z,5.70
2018-07-05T23:52:06.465Z,6.62
2018-07-05T23:54:46.000Z,6.40
2018-07-05T23:57:25.523Z,7.00
